sensor_id;sensor_type;location;lat;lon;timestamp;pressure;altitude;pressure_sealevel;temperature;humidity
17072;BME280;7731;50.720;6.912;2023-02-28T00:00:45;101321.13;;;-0.32;95.82
17072;BME280;7731;50.720;6.912;2023-02-28T00:03:18;101316.25;;;-0.20;93.87
17072;BME280;7731;50.720;6.912;2023-02-28T00:05:49;101323.94;;;-0.10;94.29
17072;BME280;7731;50.720;6.912;2023-02-28T00:08:19;101319.06;;;0.02;94.43
17072;BME280;7731;50.720;6.912;2023-02-28T00:10:49;101316.22;;;-0.23;94.66
17072;BME280;7731;50.720;6.912;2023-02-28T00:13:19;101314.47;;;-0.27;96.21
17072;BME280;7731;50.720;6.912;2023-02-28T00:15:59;101320.19;;;-0.37;99.33
17072;BME280;7731;50.720;6.912;2023-02-28T00:18:33;101313.13;;;-0.61;100.00
17072;BME280;7731;50.720;6.912;2023-02-28T00:21:04;101315.03;;;-0.45;100.00
17072;BME280;7731;50.720;6.912;2023-02-28T00:23:35;101322.41;;;-0.59;100.00
17072;BME280;7731;50.720;6.912;2023-02-28T00:26:06;101321.84;;;-0.41;100.00
17072;BME280;7731;50.720;6.912;2023-02-28T00:28:36;101316.44;;;-0.64;100.00
17072;BME280;7731;50.720;6.912;2023-02-28T00:31:06;101322.53;;;-0.49;100.00
17072;BME280;7731;50.720;6.912;2023-02-28T00:33:39;101322.81;;;-0.31;99.36
17072;BME280;7731;50.720;6.912;2023-02-28T00:36:11;101329.69;;;-0.21;97.84
17072;BME280;7731;50.720;6.912;2023-02-28T00:38:41;101329.09;;;-0.03;98.25
17072;BME280;7731;50.720;6.912;2023-02-28T00:41:12;101327.53;;;0.07;96.12
17072;BME280;7731;50.720;6.912;2023-02-28T00:43:42;101321.97;;;-0.31;97.66
17072;BME280;7731;50.720;6.912;2023-02-28T00:46:13;101326.19;;;-0.30;97.85
17072;BME280;7731;50.720;6.912;2023-02-28T00:48:46;101329.47;;;-0.36;97.59
17072;BME280;7731;50.720;6.912;2023-02-28T00:51:16;101328.13;;;-0.11;95.72
17072;BME280;7731;50.720;6.912;2023-02-28T00:53:46;101328.84;;;-0.21;96.15
17072;BME280;7731;50.720;6.912;2023-02-28T00:56:17;101327.31;;;-0.10;94.30
17072;BME280;7731;50.720;6.912;2023-02-28T00:58:49;101330.59;;;-0.15;96.29
17072;BME280;7731;50.720;6.912;2023-02-28T01:01:22;101334.03;;;-0.12;96.29
17072;BME280;7731;50.720;6.912;2023-02-28T01:03:55;101332.09;;;-0.30;95.46
17072;BME280;7731;50.720;6.912;2023-02-28T01:06:25;101338.03;;;-0.25;95.58
17072;BME280;7731;50.720;6.912;2023-02-28T01:08:55;101332.31;;;-0.13;96.04
17072;BME280;7731;50.720;6.912;2023-02-28T01:11:28;101341.06;;;-0.49;96.91
17072;BME280;7731;50.720;6.912;2023-02-28T01:13:59;101337.31;;;-0.17;96.34
17072;BME280;7731;50.720;6.912;2023-02-28T01:16:30;101343.00;;;-0.31;95.05
17072;BME280;7731;50.720;6.912;2023-02-28T01:19:02;101336.25;;;-0.33;96.41
17072;BME280;7731;50.720;6.912;2023-02-28T01:21:33;101342.53;;;-0.62;97.08
17072;BME280;7731;50.720;6.912;2023-02-28T01:24:04;101341.28;;;-0.87;99.99
17072;BME280;7731;50.720;6.912;2023-02-28T01:26:35;101339.88;;;-0.69;100.00
17072;BME280;7731;50.720;6.912;2023-02-28T01:29:05;101345.91;;;-0.63;99.15
17072;BME280;7731;50.720;6.912;2023-02-28T01:31:37;101336.56;;;-0.67;99.41
17072;BME280;7731;50.720;6.912;2023-02-28T01:34:10;101333.03;;;-0.78;100.00
17072;BME280;7731;50.720;6.912;2023-02-28T01:36:40;101329.09;;;-0.61;98.73
17072;BME280;7731;50.720;6.912;2023-02-28T01:39:10;101339.09;;;-0.67;98.66
17072;BME280;7731;50.720;6.912;2023-02-28T01:41:40;101333.97;;;-0.72;98.54
17072;BME280;7731;50.720;6.912;2023-02-28T01:47:42;101328.09;;;-1.21;100.00
17072;BME280;7731;50.720;6.912;2023-02-28T01:50:22;101316.25;;;-1.25;100.00
17072;BME280;7731;50.720;6.912;2023-02-28T01:52:58;101315.41;;;-1.26;100.00
17072;BME280;7731;50.720;6.912;2023-02-28T01:55:31;101320.84;;;-1.02;100.00
17072;BME280;7731;50.720;6.912;2023-02-28T01:58:06;101313.00;;;-0.69;100.00
17072;BME280;7731;50.720;6.912;2023-02-28T02:00:37;101313.81;;;-0.70;97.77
17072;BME280;7731;50.720;6.912;2023-02-28T02:03:13;101312.09;;;-0.73;98.17
17072;BME280;7731;50.720;6.912;2023-02-28T02:05:51;101310.75;;;-1.02;100.00
17072;BME280;7731;50.720;6.912;2023-02-28T02:08:25;101315.25;;;-0.86;100.00
17072;BME280;7731;50.720;6.912;2023-02-28T02:10:59;101308.47;;;-0.88;100.00
17072;BME280;7731;50.720;6.912;2023-02-28T02:16:46;101303.81;;;-0.64;98.22
17072;BME280;7731;50.720;6.912;2023-02-28T02:20:11;101302.88;;;-0.72;98.33
17072;BME280;7731;50.720;6.912;2023-02-28T02:23:32;101302.38;;;-1.03;98.49
17072;BME280;7731;50.720;6.912;2023-02-28T02:26:46;101300.25;;;-0.78;99.09
17072;BME280;7731;50.720;6.912;2023-02-28T02:30:12;101290.84;;;-0.87;98.11
17072;BME280;7731;50.720;6.912;2023-02-28T02:36:25;101300.50;;;-1.13;100.00
17072;BME280;7731;50.720;6.912;2023-02-28T02:39:05;101301.56;;;-0.99;100.00
17072;BME280;7731;50.720;6.912;2023-02-28T02:41:45;101302.63;;;-0.87;100.00
17072;BME280;7731;50.720;6.912;2023-02-28T02:44:24;101303.00;;;-1.13;100.00
17072;BME280;7731;50.720;6.912;2023-02-28T02:47:04;101308.09;;;-1.10;100.00
17072;BME280;7731;50.720;6.912;2023-02-28T02:49:39;101298.88;;;-1.08;100.00
17072;BME280;7731;50.720;6.912;2023-02-28T02:52:22;101298.53;;;-1.28;100.00
17072;BME280;7731;50.720;6.912;2023-02-28T02:54:58;101305.56;;;-1.12;100.00
17072;BME280;7731;50.720;6.912;2023-02-28T02:57:35;101303.16;;;-1.51;100.00
17072;BME280;7731;50.720;6.912;2023-02-28T03:00:10;101300.38;;;-1.19;100.00
17072;BME280;7731;50.720;6.912;2023-02-28T03:02:44;101296.09;;;-1.23;100.00
17072;BME280;7731;50.720;6.912;2023-02-28T03:05:23;101294.00;;;-1.46;100.00
17072;BME280;7731;50.720;6.912;2023-02-28T03:07:56;101301.47;;;-1.51;100.00
17072;BME280;7731;50.720;6.912;2023-02-28T03:10:48;101296.16;;;-1.20;100.00
17072;BME280;7731;50.720;6.912;2023-02-28T03:14:11;101301.41;;;-1.08;100.00
17072;BME280;7731;50.720;6.912;2023-02-28T03:17:09;101294.91;;;-0.97;100.00
17072;BME280;7731;50.720;6.912;2023-02-28T03:20:03;101286.38;;;-1.02;100.00
17072;BME280;7731;50.720;6.912;2023-02-28T03:22:51;101294.72;;;-1.06;100.00
17072;BME280;7731;50.720;6.912;2023-02-28T03:25:38;101290.53;;;-1.05;100.00
17072;BME280;7731;50.720;6.912;2023-02-28T03:28:21;101284.56;;;-1.09;100.00
17072;BME280;7731;50.720;6.912;2023-02-28T03:30:57;101286.28;;;-1.08;100.00
17072;BME280;7731;50.720;6.912;2023-02-28T03:33:35;101280.81;;;-1.33;100.00
17072;BME280;7731;50.720;6.912;2023-02-28T03:36:16;101285.88;;;-1.75;100.00
17072;BME280;7731;50.720;6.912;2023-02-28T03:38:52;101284.09;;;-1.37;100.00
17072;BME280;7731;50.720;6.912;2023-02-28T03:41:35;101281.03;;;-1.20;100.00
17072;BME280;7731;50.720;6.912;2023-02-28T03:44:15;101275.66;;;-1.39;100.00
17072;BME280;7731;50.720;6.912;2023-02-28T03:46:54;101280.41;;;-1.54;100.00
17072;BME280;7731;50.720;6.912;2023-02-28T03:49:32;101289.63;;;-1.56;100.00
17072;BME280;7731;50.720;6.912;2023-02-28T03:52:07;101282.84;;;-1.13;100.00
17072;BME280;7731;50.720;6.912;2023-02-28T03:54:44;101289.50;;;-1.15;98.97
17072;BME280;7731;50.720;6.912;2023-02-28T03:57:27;101282.69;;;-1.22;100.00
17072;BME280;7731;50.720;6.912;2023-02-28T04:00:08;101286.03;;;-1.23;98.78
17072;BME280;7731;50.720;6.912;2023-02-28T04:02:40;101289.13;;;-1.37;100.00
17072;BME280;7731;50.720;6.912;2023-02-28T04:05:11;101285.75;;;-1.39;99.17
17072;BME280;7731;50.720;6.912;2023-02-28T04:07:41;101290.84;;;-1.36;99.13
17072;BME280;7731;50.720;6.912;2023-02-28T04:10:13;101293.00;;;-1.56;100.00
17072;BME280;7731;50.720;6.912;2023-02-28T04:12:47;101290.72;;;-1.42;99.50
17072;BME280;7731;50.720;6.912;2023-02-28T04:15:17;101288.03;;;-1.51;99.95
17072;BME280;7731;50.720;6.912;2023-02-28T04:17:51;101288.38;;;-1.33;98.99
17072;BME280;7731;50.720;6.912;2023-02-28T04:20:22;101286.03;;;-1.23;97.00
17072;BME280;7731;50.720;6.912;2023-02-28T04:22:52;101294.91;;;-1.44;97.84
17072;BME280;7731;50.720;6.912;2023-02-28T04:25:22;101288.66;;;-1.17;96.13
17072;BME280;7731;50.720;6.912;2023-02-28T04:27:55;101296.63;;;-1.40;96.11
17072;BME280;7731;50.720;6.912;2023-02-28T04:30:25;101296.16;;;-1.66;97.72
17072;BME280;7731;50.720;6.912;2023-02-28T04:32:56;101294.16;;;-1.37;97.98
17072;BME280;7731;50.720;6.912;2023-02-28T04:35:26;101298.84;;;-1.11;94.74
17072;BME280;7731;50.720;6.912;2023-02-28T04:37:59;101294.38;;;-1.24;94.11
17072;BME280;7731;50.720;6.912;2023-02-28T04:40:30;101295.94;;;-1.33;94.71
17072;BME280;7731;50.720;6.912;2023-02-28T04:43:03;101295.00;;;-1.39;94.57
17072;BME280;7731;50.720;6.912;2023-02-28T04:45:34;101297.75;;;-1.26;94.35
17072;BME280;7731;50.720;6.912;2023-02-28T04:48:05;101293.41;;;-1.33;93.33
17072;BME280;7731;50.720;6.912;2023-02-28T04:50:35;101295.81;;;-1.39;93.63
17072;BME280;7731;50.720;6.912;2023-02-28T04:53:05;101304.38;;;-1.31;93.98
17072;BME280;7731;50.720;6.912;2023-02-28T04:55:35;101298.50;;;-1.31;93.88
17072;BME280;7731;50.720;6.912;2023-02-28T04:58:09;101299.72;;;-1.56;96.13
17072;BME280;7731;50.720;6.912;2023-02-28T05:00:40;101302.94;;;-1.62;95.37
17072;BME280;7731;50.720;6.912;2023-02-28T05:03:10;101305.97;;;-1.36;93.19
17072;BME280;7731;50.720;6.912;2023-02-28T05:05:40;101305.78;;;-1.45;94.44
17072;BME280;7731;50.720;6.912;2023-02-28T05:08:11;101310.09;;;-1.39;92.66
17072;BME280;7731;50.720;6.912;2023-02-28T05:10:41;101318.22;;;-1.54;91.96
17072;BME280;7731;50.720;6.912;2023-02-28T05:13:14;101319.22;;;-1.46;93.09
17072;BME280;7731;50.720;6.912;2023-02-28T05:15:44;101316.38;;;-1.62;92.80
17072;BME280;7731;50.720;6.912;2023-02-28T05:18:14;101318.47;;;-1.42;93.81
17072;BME280;7731;50.720;6.912;2023-02-28T05:20:45;101320.63;;;-1.60;93.18
17072;BME280;7731;50.720;6.912;2023-02-28T05:23:17;101322.69;;;-1.84;95.36
17072;BME280;7731;50.720;6.912;2023-02-28T05:25:49;101320.50;;;-1.67;95.53
17072;BME280;7731;50.720;6.912;2023-02-28T05:28:23;101316.72;;;-1.45;95.16
17072;BME280;7731;50.720;6.912;2023-02-28T05:30:53;101324.13;;;-1.52;96.00
17072;BME280;7731;50.720;6.912;2023-02-28T05:33:24;101318.66;;;-1.74;94.19
17072;BME280;7731;50.720;6.912;2023-02-28T05:35:54;101316.84;;;-1.83;97.48
17072;BME280;7731;50.720;6.912;2023-02-28T05:38:24;101315.41;;;-1.70;95.63
17072;BME280;7731;50.720;6.912;2023-02-28T05:40:54;101319.41;;;-2.19;97.57
17072;BME280;7731;50.720;6.912;2023-02-28T05:43:27;101324.25;;;-2.28;100.00
17072;BME280;7731;50.720;6.912;2023-02-28T05:45:58;101320.72;;;-2.35;100.00
17072;BME280;7731;50.720;6.912;2023-02-28T05:48:28;101326.88;;;-1.84;98.54
17072;BME280;7731;50.720;6.912;2023-02-28T05:50:58;101329.97;;;-1.96;98.03
17072;BME280;7731;50.720;6.912;2023-02-28T05:53:30;101326.97;;;-2.19;98.48
17072;BME280;7731;50.720;6.912;2023-02-28T05:56:01;101322.25;;;-2.42;100.00
17072;BME280;7731;50.720;6.912;2023-02-28T05:58:34;101323.53;;;-2.21;99.76
17072;BME280;7731;50.720;6.912;2023-02-28T06:01:23;101319.44;;;-2.18;99.79
17072;BME280;7731;50.720;6.912;2023-02-28T06:03:54;101324.25;;;-2.28;98.70
17072;BME280;7731;50.720;6.912;2023-02-28T06:06:29;101320.69;;;-2.37;99.86
17072;BME280;7731;50.720;6.912;2023-02-28T06:09:04;101314.38;;;-2.56;100.00
17072;BME280;7731;50.720;6.912;2023-02-28T06:11:34;101321.81;;;-2.60;100.00
17072;BME280;7731;50.720;6.912;2023-02-28T06:14:15;101318.50;;;-2.21;100.00
17072;BME280;7731;50.720;6.912;2023-02-28T06:16:47;101318.56;;;-2.18;98.54
17072;BME280;7731;50.720;6.912;2023-02-28T06:19:17;101323.06;;;-2.05;95.39
17072;BME280;7731;50.720;6.912;2023-02-28T06:21:51;101325.09;;;-1.88;92.56
17072;BME280;7731;50.720;6.912;2023-02-28T06:24:24;101326.16;;;-1.77;92.23
17072;BME280;7731;50.720;6.912;2023-02-28T06:26:55;101330.47;;;-1.73;90.13
17072;BME280;7731;50.720;6.912;2023-02-28T06:29:28;101335.56;;;-1.70;90.60
17072;BME280;7731;50.720;6.912;2023-02-28T06:31:59;101335.63;;;-1.67;90.32
17072;BME280;7731;50.720;6.912;2023-02-28T06:34:29;101340.66;;;-1.67;90.14
17072;BME280;7731;50.720;6.912;2023-02-28T06:37:02;101337.34;;;-1.66;90.16
17072;BME280;7731;50.720;6.912;2023-02-28T06:39:35;101339.25;;;-1.52;88.36
17072;BME280;7731;50.720;6.912;2023-02-28T06:42:05;101341.59;;;-1.62;88.81
17072;BME280;7731;50.720;6.912;2023-02-28T06:44:39;101346.59;;;-1.63;89.39
17072;BME280;7731;50.720;6.912;2023-02-28T06:47:10;101352.81;;;-1.47;87.95
17072;BME280;7731;50.720;6.912;2023-02-28T06:49:40;101356.88;;;-1.54;87.47
17072;BME280;7731;50.720;6.912;2023-02-28T06:52:12;101358.56;;;-1.53;87.61
17072;BME280;7731;50.720;6.912;2023-02-28T06:54:42;101364.56;;;-1.46;87.42
17072;BME280;7731;50.720;6.912;2023-02-28T06:57:12;101365.31;;;-1.52;86.81
17072;BME280;7731;50.720;6.912;2023-02-28T06:59:45;101371.19;;;-1.51;88.62
17072;BME280;7731;50.720;6.912;2023-02-28T07:02:15;101379.56;;;-1.52;87.53
17072;BME280;7731;50.720;6.912;2023-02-28T07:04:45;101374.16;;;-1.71;88.98
17072;BME280;7731;50.720;6.912;2023-02-28T07:07:15;101378.44;;;-1.67;91.19
17072;BME280;7731;50.720;6.912;2023-02-28T07:09:46;101380.91;;;-1.70;90.60
17072;BME280;7731;50.720;6.912;2023-02-28T07:12:16;101378.09;;;-1.42;89.31
17072;BME280;7731;50.720;6.912;2023-02-28T07:14:51;101382.06;;;-1.11;86.29
17072;BME280;7731;50.720;6.912;2023-02-28T07:17:24;101383.78;;;-1.10;84.87
17072;BME280;7731;50.720;6.912;2023-02-28T07:19:54;101371.97;;;-1.11;84.93
17072;BME280;7731;50.720;6.912;2023-02-28T07:22:27;101381.03;;;-1.64;88.63
17072;BME280;7731;50.720;6.912;2023-02-28T07:24:58;101382.88;;;-1.56;90.54
17072;BME280;7731;50.720;6.912;2023-02-28T07:27:28;101381.03;;;-1.21;89.08
17072;BME280;7731;50.720;6.912;2023-02-28T07:30:01;101384.97;;;-1.34;87.06
17072;BME280;7731;50.720;6.912;2023-02-28T07:32:32;101373.91;;;-0.98;86.19
17072;BME280;7731;50.720;6.912;2023-02-28T07:35:07;101374.72;;;-0.99;84.20
17072;BME280;7731;50.720;6.912;2023-02-28T07:37:38;101374.75;;;-0.97;85.07
17072;BME280;7731;50.720;6.912;2023-02-28T07:40:11;101374.69;;;-0.51;83.62
17072;BME280;7731;50.720;6.912;2023-02-28T07:42:42;101374.53;;;-0.61;81.31
17072;BME280;7731;50.720;6.912;2023-02-28T07:45:15;101372.66;;;-0.19;78.40
17072;BME280;7731;50.720;6.912;2023-02-28T07:47:45;101371.00;;;-0.17;75.73
17072;BME280;7731;50.720;6.912;2023-02-28T07:50:18;101382.28;;;0.05;76.59
17072;BME280;7731;50.720;6.912;2023-02-28T07:52:48;101383.28;;;0.20;74.28
17072;BME280;7731;50.720;6.912;2023-02-28T07:55:18;101380.81;;;1.98;66.46
17072;BME280;7731;50.720;6.912;2023-02-28T07:57:51;101375.19;;;4.35;55.18
17072;BME280;7731;50.720;6.912;2023-02-28T08:00:26;101365.34;;;6.19;48.96
17072;BME280;7731;50.720;6.912;2023-02-28T08:02:59;101364.84;;;7.72;45.19
17072;BME280;7731;50.720;6.912;2023-02-28T08:05:29;101350.69;;;9.19;38.74
17072;BME280;7731;50.720;6.912;2023-02-28T08:07:59;101357.88;;;8.25;37.90
17072;BME280;7731;50.720;6.912;2023-02-28T08:10:35;101352.06;;;10.00;36.18
17072;BME280;7731;50.720;6.912;2023-02-28T08:13:06;101347.06;;;11.64;32.70
17072;BME280;7731;50.720;6.912;2023-02-28T08:15:42;101351.56;;;9.54;35.00
17072;BME280;7731;50.720;6.912;2023-02-28T08:18:14;101352.56;;;11.28;32.78
17072;BME280;7731;50.720;6.912;2023-02-28T08:20:44;101354.50;;;10.36;33.33
17072;BME280;7731;50.720;6.912;2023-02-28T08:23:15;101353.31;;;9.18;34.69
17072;BME280;7731;50.720;6.912;2023-02-28T08:25:52;101351.03;;;10.95;32.75
17072;BME280;7731;50.720;6.912;2023-02-28T08:28:22;101354.72;;;11.90;31.20
17072;BME280;7731;50.720;6.912;2023-02-28T08:30:56;101348.47;;;13.11;29.19
17072;BME280;7731;50.720;6.912;2023-02-28T08:33:27;101348.69;;;13.68;27.67
17072;BME280;7731;50.720;6.912;2023-02-28T08:35:58;101354.94;;;11.34;30.47
17072;BME280;7731;50.720;6.912;2023-02-28T08:38:29;101348.38;;;12.92;29.21
17072;BME280;7731;50.720;6.912;2023-02-28T08:41:00;101362.88;;;12.27;29.65
17072;BME280;7731;50.720;6.912;2023-02-28T08:43:31;101359.19;;;10.51;31.16
17072;BME280;7731;50.720;6.912;2023-02-28T08:46:04;101359.41;;;10.44;31.63
17072;BME280;7731;50.720;6.912;2023-02-28T08:48:36;101355.31;;;12.46;29.06
17072;BME280;7731;50.720;6.912;2023-02-28T08:51:10;101371.75;;;11.94;29.68
17072;BME280;7731;50.720;6.912;2023-02-28T08:53:41;101359.28;;;12.77;28.21
17072;BME280;7731;50.720;6.912;2023-02-28T08:56:14;101360.00;;;11.08;29.62
17072;BME280;7731;50.720;6.912;2023-02-28T08:58:46;101367.69;;;10.22;33.08
17072;BME280;7731;50.720;6.912;2023-02-28T09:01:22;101373.78;;;10.51;32.20
17072;BME280;7731;50.720;6.912;2023-02-28T09:03:58;101365.63;;;12.46;28.79
17072;BME280;7731;50.720;6.912;2023-02-28T09:06:32;101367.19;;;13.99;26.74
17072;BME280;7731;50.720;6.912;2023-02-28T09:09:03;101355.72;;;14.63;24.95
17072;BME280;7731;50.720;6.912;2023-02-28T09:11:35;101367.63;;;12.83;27.28
17072;BME280;7731;50.720;6.912;2023-02-28T09:14:05;101358.34;;;12.10;29.08
17072;BME280;7731;50.720;6.912;2023-02-28T09:16:40;101343.69;;;14.24;25.43
17072;BME280;7731;50.720;6.912;2023-02-28T09:19:11;101351.41;;;12.58;25.69
17072;BME280;7731;50.720;6.912;2023-02-28T09:21:42;101343.78;;;13.21;25.65
17072;BME280;7731;50.720;6.912;2023-02-28T09:24:12;101343.84;;;11.05;27.27
17072;BME280;7731;50.720;6.912;2023-02-28T09:26:42;101346.38;;;12.55;26.67
17072;BME280;7731;50.720;6.912;2023-02-28T09:29:33;101350.91;;;12.26;27.27
17072;BME280;7731;50.720;6.912;2023-02-28T09:32:08;101342.09;;;12.31;26.35
17072;BME280;7731;50.720;6.912;2023-02-28T09:34:38;101357.72;;;10.72;27.45
17072;BME280;7731;50.720;6.912;2023-02-28T09:37:08;101350.28;;;11.18;26.92
17072;BME280;7731;50.720;6.912;2023-02-28T09:39:39;101364.66;;;9.76;28.62
17072;BME280;7731;50.720;6.912;2023-02-28T09:42:23;101339.50;;;11.34;26.36
17072;BME280;7731;50.720;6.912;2023-02-28T09:44:56;101344.31;;;12.41;25.25
17072;BME280;7731;50.720;6.912;2023-02-28T09:47:34;101351.84;;;10.08;26.59
17072;BME280;7731;50.720;6.912;2023-02-28T09:50:18;101353.25;;;9.55;27.51
17072;BME280;7731;50.720;6.912;2023-02-28T09:52:55;101354.34;;;9.45;28.21
17072;BME280;7731;50.720;6.912;2023-02-28T09:55:32;101348.22;;;11.03;26.96
17072;BME280;7731;50.720;6.912;2023-02-28T09:58:26;101347.00;;;12.61;25.06
17072;BME280;7731;50.720;6.912;2023-02-28T10:01:05;101357.75;;;10.71;26.60
17072;BME280;7731;50.720;6.912;2023-02-28T10:03:43;101344.22;;;12.88;24.03
17072;BME280;7731;50.720;6.912;2023-02-28T10:06:20;101345.63;;;11.30;25.08
17072;BME280;7731;50.720;6.912;2023-02-28T10:09:00;101343.47;;;12.18;24.62
17072;BME280;7731;50.720;6.912;2023-02-28T10:11:35;101346.75;;;10.67;25.78
17072;BME280;7731;50.720;6.912;2023-02-28T10:14:15;101346.66;;;10.41;27.24
17072;BME280;7731;50.720;6.912;2023-02-28T10:16:52;101339.69;;;11.28;25.23
17072;BME280;7731;50.720;6.912;2023-02-28T10:19:35;101339.75;;;12.25;24.96
17072;BME280;7731;50.720;6.912;2023-02-28T10:22:14;101341.78;;;11.93;24.25
17072;BME280;7731;50.720;6.912;2023-02-28T10:24:48;101339.00;;;10.39;25.68
17072;BME280;7731;50.720;6.912;2023-02-28T10:27:21;101343.75;;;8.05;29.51
17072;BME280;7731;50.720;6.912;2023-02-28T10:29:53;101344.84;;;8.76;29.10
17072;BME280;7731;50.720;6.912;2023-02-28T10:32:27;101332.13;;;9.78;27.76
17072;BME280;7731;50.720;6.912;2023-02-28T10:35:14;101324.22;;;10.16;27.96
17072;BME280;7731;50.720;6.912;2023-02-28T10:37:48;101332.47;;;12.13;26.06
17072;BME280;7731;50.720;6.912;2023-02-28T10:40:33;101329.84;;;9.33;27.68
17072;BME280;7731;50.720;6.912;2023-02-28T10:43:18;101328.41;;;9.89;27.67
17072;BME280;7731;50.720;6.912;2023-02-28T10:46:03;101318.31;;;11.25;26.55
17072;BME280;7731;50.720;6.912;2023-02-28T10:48:37;101318.72;;;11.40;25.87
17072;BME280;7731;50.720;6.912;2023-02-28T10:51:16;101314.16;;;10.08;26.65
17072;BME280;7731;50.720;6.912;2023-02-28T10:53:51;101337.03;;;7.53;29.55
17072;BME280;7731;50.720;6.912;2023-02-28T10:56:31;101335.50;;;6.88;30.36
17072;BME280;7731;50.720;6.912;2023-02-28T10:59:25;101327.94;;;7.37;30.57
17072;BME280;7731;50.720;6.912;2023-02-28T11:01:57;101321.81;;;6.92;31.10
17072;BME280;7731;50.720;6.912;2023-02-28T11:04:36;101323.03;;;7.73;29.86
17072;BME280;7731;50.720;6.912;2023-02-28T11:07:21;101321.88;;;6.25;32.05
17072;BME280;7731;50.720;6.912;2023-02-28T11:09:56;101318.41;;;7.92;30.37
17072;BME280;7731;50.720;6.912;2023-02-28T11:12:34;101304.34;;;9.61;28.70
17072;BME280;7731;50.720;6.912;2023-02-28T11:15:25;101310.28;;;9.93;27.03
17072;BME280;7731;50.720;6.912;2023-02-28T11:17:59;101313.69;;;9.62;27.28
17072;BME280;7731;50.720;6.912;2023-02-28T11:20:33;101321.97;;;8.28;29.08
17072;BME280;7731;50.720;6.912;2023-02-28T11:23:13;101325.19;;;7.94;30.20
17072;BME280;7731;50.720;6.912;2023-02-28T11:25:51;101309.97;;;8.30;28.80
17072;BME280;7731;50.720;6.912;2023-02-28T11:28:30;101315.97;;;8.28;28.34
17072;BME280;7731;50.720;6.912;2023-02-28T11:31:16;101307.44;;;9.73;26.63
17072;BME280;7731;50.720;6.912;2023-02-28T11:33:52;101297.16;;;10.04;26.79
17072;BME280;7731;50.720;6.912;2023-02-28T11:36:26;101280.34;;;10.53;26.03
17072;BME280;7731;50.720;6.912;2023-02-28T11:39:08;101297.97;;;10.36;26.76
17072;BME280;7731;50.720;6.912;2023-02-28T11:42:02;101298.06;;;10.33;26.46
17072;BME280;7731;50.720;6.912;2023-02-28T11:44:58;101302.03;;;10.13;26.80
17072;BME280;7731;50.720;6.912;2023-02-28T11:47:40;101292.94;;;10.31;26.37
17072;BME280;7731;50.720;6.912;2023-02-28T11:50:26;101290.59;;;8.59;27.59
17072;BME280;7731;50.720;6.912;2023-02-28T11:53:05;101297.16;;;10.04;27.24
17072;BME280;7731;50.720;6.912;2023-02-28T11:55:49;101299.31;;;9.88;26.85
17072;BME280;7731;50.720;6.912;2023-02-28T11:58:41;101288.47;;;8.76;27.24
17072;BME280;7731;50.720;6.912;2023-02-28T12:02:05;101295.84;;;9.91;27.72
17072;BME280;7731;50.720;6.912;2023-02-28T12:05:24;101292.41;;;10.22;27.03
17072;BME280;7731;50.720;6.912;2023-02-28T12:08:19;101308.44;;;8.20;28.61
17072;BME280;7731;50.720;6.912;2023-02-28T12:11:12;101299.47;;;7.55;29.69
17072;BME280;7731;50.720;6.912;2023-02-28T12:14:00;101296.91;;;7.07;31.57
17072;BME280;7731;50.720;6.912;2023-02-28T12:17:02;101297.44;;;6.73;31.11
17072;BME280;7731;50.720;6.912;2023-02-28T12:20:08;101297.75;;;6.50;31.31
17072;BME280;7731;50.720;6.912;2023-02-28T12:22:52;101295.16;;;7.09;30.03
17072;BME280;7731;50.720;6.912;2023-02-28T12:25:50;101300.66;;;5.43;32.43
17072;BME280;7731;50.720;6.912;2023-02-28T12:28:31;101291.47;;;6.08;32.68
17072;BME280;7731;50.720;6.912;2023-02-28T12:31:10;101287.41;;;6.60;31.84
17072;BME280;7731;50.720;6.912;2023-02-28T12:33:53;101280.16;;;6.87;31.92
17072;BME280;7731;50.720;6.912;2023-02-28T12:36:27;101277.81;;;6.75;31.13
17072;BME280;7731;50.720;6.912;2023-02-28T12:39:05;101281.38;;;6.01;32.89
17072;BME280;7731;50.720;6.912;2023-02-28T12:41:44;101278.38;;;6.35;32.50
17072;BME280;7731;50.720;6.912;2023-02-28T12:44:32;101280.63;;;5.88;32.41
17072;BME280;7731;50.720;6.912;2023-02-28T12:47:10;101284.78;;;6.00;32.36
17072;BME280;7731;50.720;6.912;2023-02-28T12:49:49;101279.66;;;6.67;31.82
17072;BME280;7731;50.720;6.912;2023-02-28T12:52:28;101269.44;;;6.67;31.87
17072;BME280;7731;50.720;6.912;2023-02-28T12:55:12;101267.44;;;6.86;31.59
17072;BME280;7731;50.720;6.912;2023-02-28T12:57:54;101264.50;;;6.54;31.91
17072;BME280;7731;50.720;6.912;2023-02-28T13:00:35;101255.44;;;6.89;32.30
17072;BME280;7731;50.720;6.912;2023-02-28T13:03:44;101250.34;;;6.88;33.03
17072;BME280;7731;50.720;6.912;2023-02-28T13:06:44;101253.84;;;7.33;32.39
17072;BME280;7731;50.720;6.912;2023-02-28T13:09:20;101252.19;;;6.20;33.39
17072;BME280;7731;50.720;6.912;2023-02-28T13:11:56;101247.66;;;6.95;32.67
17072;BME280;7731;50.720;6.912;2023-02-28T13:14:35;101250.34;;;6.32;33.36
17072;BME280;7731;50.720;6.912;2023-02-28T13:17:19;101243.25;;;6.52;33.48
17072;BME280;7731;50.720;6.912;2023-02-28T13:20:01;101243.31;;;6.48;33.08
17072;BME280;7731;50.720;6.912;2023-02-28T13:22:41;101224.34;;;6.03;33.07
17072;BME280;7731;50.720;6.912;2023-02-28T13:25:51;101237.75;;;6.21;34.07
17072;BME280;7731;50.720;6.912;2023-02-28T13:28:59;101236.91;;;6.17;34.07
17072;BME280;7731;50.720;6.912;2023-02-28T13:32:27;101246.00;;;6.37;33.89
17072;BME280;7731;50.720;6.912;2023-02-28T13:35:43;101238.50;;;6.28;33.27
17072;BME280;7731;50.720;6.912;2023-02-28T13:38:34;101247.06;;;6.20;34.06
17072;BME280;7731;50.720;6.912;2023-02-28T13:41:43;101235.72;;;6.43;34.44
17072;BME280;7731;50.720;6.912;2023-02-28T13:44:17;101231.06;;;6.11;34.62
17072;BME280;7731;50.720;6.912;2023-02-28T13:47:24;101233.13;;;5.81;35.54
17072;BME280;7731;50.720;6.912;2023-02-28T13:50:23;101244.00;;;5.97;34.73
17072;BME280;7731;50.720;6.912;2023-02-28T13:53:27;101236.47;;;5.84;35.37
17072;BME280;7731;50.720;6.912;2023-02-28T13:56:10;101239.91;;;6.47;34.55
17072;BME280;7731;50.720;6.912;2023-02-28T13:58:55;101235.66;;;6.48;33.48
17072;BME280;7731;50.720;6.912;2023-02-28T14:01:46;101226.47;;;6.36;34.44
17072;BME280;7731;50.720;6.912;2023-02-28T14:05:00;101225.00;;;6.19;35.88